sensor_id;sensor_type;location;lat;lon;timestamp;P1;durP1;ratioP1;P2;durP2;ratioP2
65706;SDS011;52423;43.512;5.220;2022-10-17T00:01:36;4.00;;;2.50;;
65706;SDS011;52423;43.512;5.220;2022-10-17T00:04:02;3.67;;;2.55;;
65706;SDS011;52423;43.512;5.220;2022-10-17T00:06:27;3.10;;;2.80;;
65706;SDS011;52423;43.512;5.220;2022-10-17T00:08:53;4.18;;;2.70;;
65706;SDS011;52423;43.512;5.220;2022-10-17T00:11:19;4.43;;;3.00;;
65706;SDS011;52423;43.512;5.220;2022-10-17T00:13:46;8.15;;;2.95;;
65706;SDS011;52423;43.512;5.220;2022-10-17T00:16:12;7.22;;;3.28;;
65706;SDS011;52423;43.512;5.220;2022-10-17T00:18:38;4.05;;;2.97;;
65706;SDS011;52423;43.512;5.220;2022-10-17T00:21:03;4.85;;;3.22;;
65706;SDS011;52423;43.512;5.220;2022-10-17T00:23:29;5.60;;;3.05;;
65706;SDS011;52423;43.512;5.220;2022-10-17T00:26:02;5.55;;;3.40;;
65706;SDS011;52423;43.512;5.220;2022-10-17T00:28:30;4.57;;;3.10;;
65706;SDS011;52423;43.512;5.220;2022-10-17T00:30:56;5.10;;;3.30;;
65706;SDS011;52423;43.512;5.220;2022-10-17T00:33:32;3.53;;;3.10;;
65706;SDS011;52423;43.512;5.220;2022-10-17T00:36:05;4.82;;;3.10;;
65706;SDS011;52423;43.512;5.220;2022-10-17T00:38:33;6.35;;;3.40;;
65706;SDS011;52423;43.512;5.220;2022-10-17T00:40:59;9.80;;;3.20;;
65706;SDS011;52423;43.512;5.220;2022-10-17T00:43:25;6.30;;;2.97;;
65706;SDS011;52423;43.512;5.220;2022-10-17T00:45:51;4.68;;;2.97;;
65706;SDS011;52423;43.512;5.220;2022-10-17T00:48:16;8.43;;;3.00;;
65706;SDS011;52423;43.512;5.220;2022-10-17T00:50:43;6.90;;;3.53;;
65706;SDS011;52423;43.512;5.220;2022-10-17T00:53:12;7.28;;;2.90;;
65706;SDS011;52423;43.512;5.220;2022-10-17T00:55:48;5.15;;;2.97;;
65706;SDS011;52423;43.512;5.220;2022-10-17T00:58:17;4.43;;;2.85;;
65706;SDS011;52423;43.512;5.220;2022-10-17T01:00:45;6.13;;;2.72;;
65706;SDS011;52423;43.512;5.220;2022-10-17T01:03:12;3.35;;;2.65;;
65706;SDS011;52423;43.512;5.220;2022-10-17T01:05:38;3.58;;;2.72;;
65706;SDS011;52423;43.512;5.220;2022-10-17T01:08:05;3.88;;;2.60;;
65706;SDS011;52423;43.512;5.220;2022-10-17T01:13:31;4.88;;;2.55;;
65706;SDS011;52423;43.512;5.220;2022-10-17T01:16:09;5.70;;;2.97;;
65706;SDS011;52423;43.512;5.220;2022-10-17T01:18:47;6.13;;;2.70;;
65706;SDS011;52423;43.512;5.220;2022-10-17T01:21:29;4.70;;;2.83;;
65706;SDS011;52423;43.512;5.220;2022-10-17T01:26:39;4.50;;;2.97;;
65706;SDS011;52423;43.512;5.220;2022-10-17T01:32:12;3.53;;;3.13;;
65706;SDS011;52423;43.512;5.220;2022-10-17T01:42:52;3.93;;;2.77;;
65706;SDS011;52423;43.512;5.220;2022-10-17T01:47:55;5.90;;;2.55;;
65706;SDS011;52423;43.512;5.220;2022-10-17T01:50:22;2.70;;;2.50;;
65706;SDS011;52423;43.512;5.220;2022-10-17T01:52:52;4.22;;;2.55;;
65706;SDS011;52423;43.512;5.220;2022-10-17T01:55:35;5.78;;;2.97;;
65706;SDS011;52423;43.512;5.220;2022-10-17T01:58:08;6.05;;;2.80;;
65706;SDS011;52423;43.512;5.220;2022-10-17T02:00:37;2.50;;;2.30;;
65706;SDS011;52423;43.512;5.220;2022-10-17T02:03:06;8.13;;;2.70;;
65706;SDS011;52423;43.512;5.220;2022-10-17T02:05:36;2.72;;;2.35;;
65706;SDS011;52423;43.512;5.220;2022-10-17T02:08:04;3.17;;;2.40;;
65706;SDS011;52423;43.512;5.220;2022-10-17T02:13:12;2.83;;;2.50;;
65706;SDS011;52423;43.512;5.220;2022-10-17T02:21:11;4.20;;;2.50;;
65706;SDS011;52423;43.512;5.220;2022-10-17T02:26:36;4.32;;;2.50;;
65706;SDS011;52423;43.512;5.220;2022-10-17T02:29:09;6.10;;;2.88;;
65706;SDS011;52423;43.512;5.220;2022-10-17T02:31:43;2.53;;;2.33;;
65706;SDS011;52423;43.512;5.220;2022-10-17T02:36:55;2.47;;;2.17;;
65706;SDS011;52423;43.512;5.220;2022-10-17T02:39:24;3.50;;;2.57;;
65706;SDS011;52423;43.512;5.220;2022-10-17T02:41:52;6.63;;;2.80;;
65706;SDS011;52423;43.512;5.220;2022-10-17T02:44:20;3.13;;;2.33;;
65706;SDS011;52423;43.512;5.220;2022-10-17T02:46:50;2.55;;;2.35;;
65706;SDS011;52423;43.512;5.220;2022-10-17T02:49:23;2.83;;;2.30;;
65706;SDS011;52423;43.512;5.220;2022-10-17T02:52:13;3.35;;;2.30;;
65706;SDS011;52423;43.512;5.220;2022-10-17T02:54:45;3.10;;;2.45;;
65706;SDS011;52423;43.512;5.220;2022-10-17T02:57:18;3.38;;;2.78;;
65706;SDS011;52423;43.512;5.220;2022-10-17T02:59:51;2.72;;;2.10;;
65706;SDS011;52423;43.512;5.220;2022-10-17T03:02:17;3.63;;;2.78;;
65706;SDS011;52423;43.512;5.220;2022-10-17T03:04:43;3.30;;;2.50;;
65706;SDS011;52423;43.512;5.220;2022-10-17T03:07:09;4.30;;;2.50;;
65706;SDS011;52423;43.512;5.220;2022-10-17T03:09:35;3.88;;;2.60;;
65706;SDS011;52423;43.512;5.220;2022-10-17T03:12:00;5.18;;;2.40;;
65706;SDS011;52423;43.512;5.220;2022-10-17T03:14:26;4.55;;;2.60;;
65706;SDS011;52423;43.512;5.220;2022-10-17T03:16:51;6.28;;;2.42;;
65706;SDS011;52423;43.512;5.220;2022-10-17T03:19:17;3.53;;;2.30;;
65706;SDS011;52423;43.512;5.220;2022-10-17T03:21:42;5.18;;;2.85;;
65706;SDS011;52423;43.512;5.220;2022-10-17T03:24:07;5.35;;;2.30;;
65706;SDS011;52423;43.512;5.220;2022-10-17T03:26:33;3.72;;;2.50;;
65706;SDS011;52423;43.512;5.220;2022-10-17T03:28:58;4.40;;;2.63;;
65706;SDS011;52423;43.512;5.220;2022-10-17T03:31:23;2.67;;;2.47;;
65706;SDS011;52423;43.512;5.220;2022-10-17T03:33:49;3.30;;;2.50;;
65706;SDS011;52423;43.512;5.220;2022-10-17T03:36:15;3.88;;;2.60;;
65706;SDS011;52423;43.512;5.220;2022-10-17T03:38:42;3.92;;;2.45;;
65706;SDS011;52423;43.512;5.220;2022-10-17T03:41:08;4.88;;;2.45;;
65706;SDS011;52423;43.512;5.220;2022-10-17T03:43:35;6.07;;;2.60;;
65706;SDS011;52423;43.512;5.220;2022-10-17T03:46:01;3.70;;;2.55;;
65706;SDS011;52423;43.512;5.220;2022-10-17T03:48:27;5.15;;;2.55;;
65706;SDS011;52423;43.512;5.220;2022-10-17T03:50:58;5.03;;;2.40;;
65706;SDS011;52423;43.512;5.220;2022-10-17T03:53:25;3.13;;;2.27;;
65706;SDS011;52423;43.512;5.220;2022-10-17T03:55:51;4.63;;;2.67;;
65706;SDS011;52423;43.512;5.220;2022-10-17T03:58:16;4.32;;;2.83;;
65706;SDS011;52423;43.512;5.220;2022-10-17T04:00:41;3.40;;;2.50;;
65706;SDS011;52423;43.512;5.220;2022-10-17T04:03:07;3.25;;;2.50;;
65706;SDS011;52423;43.512;5.220;2022-10-17T04:05:32;3.05;;;2.63;;
65706;SDS011;52423;43.512;5.220;2022-10-17T04:07:57;3.17;;;2.50;;
65706;SDS011;52423;43.512;5.220;2022-10-17T04:10:23;3.75;;;2.42;;
65706;SDS011;52423;43.512;5.220;2022-10-17T04:12:48;2.55;;;2.35;;
65706;SDS011;52423;43.512;5.220;2022-10-17T04:15:13;5.15;;;2.45;;
65706;SDS011;52423;43.512;5.220;2022-10-17T04:17:39;3.20;;;2.60;;
65706;SDS011;52423;43.512;5.220;2022-10-17T04:20:05;5.30;;;2.75;;
65706;SDS011;52423;43.512;5.220;2022-10-17T04:22:30;4.70;;;2.45;;
65706;SDS011;52423;43.512;5.220;2022-10-17T04:24:56;3.55;;;2.70;;
65706;SDS011;52423;43.512;5.220;2022-10-17T04:27:21;4.30;;;2.30;;
65706;SDS011;52423;43.512;5.220;2022-10-17T04:29:46;9.27;;;2.60;;
65706;SDS011;52423;43.512;5.220;2022-10-17T04:32:12;3.72;;;2.63;;
65706;SDS011;52423;43.512;5.220;2022-10-17T04:34:37;5.25;;;2.55;;
65706;SDS011;52423;43.512;5.220;2022-10-17T04:37:02;9.40;;;2.90;;
65706;SDS011;52423;43.512;5.220;2022-10-17T04:39:28;2.80;;;2.28;;
65706;SDS011;52423;43.512;5.220;2022-10-17T04:41:54;3.53;;;2.35;;
65706;SDS011;52423;43.512;5.220;2022-10-17T04:44:20;3.97;;;2.60;;
65706;SDS011;52423;43.512;5.220;2022-10-17T04:46:46;4.22;;;2.42;;
65706;SDS011;52423;43.512;5.220;2022-10-17T04:49:11;5.15;;;2.53;;
65706;SDS011;52423;43.512;5.220;2022-10-17T04:51:37;4.18;;;2.40;;
65706;SDS011;52423;43.512;5.220;2022-10-17T04:54:03;2.80;;;2.35;;
65706;SDS011;52423;43.512;5.220;2022-10-17T04:56:28;2.83;;;2.60;;
65706;SDS011;52423;43.512;5.220;2022-10-17T04:58:54;2.63;;;2.42;;
65706;SDS011;52423;43.512;5.220;2022-10-17T05:01:20;5.35;;;2.70;;
65706;SDS011;52423;43.512;5.220;2022-10-17T05:03:46;7.50;;;2.78;;
65706;SDS011;52423;43.512;5.220;2022-10-17T05:06:13;2.45;;;2.20;;
65706;SDS011;52423;43.512;5.220;2022-10-17T05:08:41;3.67;;;2.72;;
65706;SDS011;52423;43.512;5.220;2022-10-17T05:11:23;3.95;;;2.38;;
65706;SDS011;52423;43.512;5.220;2022-10-17T05:13:54;3.60;;;2.60;;
65706;SDS011;52423;43.512;5.220;2022-10-17T05:16:21;3.90;;;2.85;;
65706;SDS011;52423;43.512;5.220;2022-10-17T05:18:51;3.80;;;2.47;;
65706;SDS011;52423;43.512;5.220;2022-10-17T05:21:18;2.42;;;2.22;;
65706;SDS011;52423;43.512;5.220;2022-10-17T05:23:43;5.95;;;2.75;;
65706;SDS011;52423;43.512;5.220;2022-10-17T05:26:09;2.67;;;2.40;;
65706;SDS011;52423;43.512;5.220;2022-10-17T05:28:34;2.60;;;2.10;;
65706;SDS011;52423;43.512;5.220;2022-10-17T05:31:01;6.30;;;2.58;;
65706;SDS011;52423;43.512;5.220;2022-10-17T05:33:31;4.68;;;2.55;;
65706;SDS011;52423;43.512;5.220;2022-10-17T05:35:57;4.07;;;2.55;;
65706;SDS011;52423;43.512;5.220;2022-10-17T05:38:22;4.65;;;2.35;;
65706;SDS011;52423;43.512;5.220;2022-10-17T05:40:48;4.53;;;2.28;;
65706;SDS011;52423;43.512;5.220;2022-10-17T05:43:13;4.05;;;2.90;;
65706;SDS011;52423;43.512;5.220;2022-10-17T05:45:39;4.43;;;2.10;;
65706;SDS011;52423;43.512;5.220;2022-10-17T05:48:05;4.60;;;2.90;;
65706;SDS011;52423;43.512;5.220;2022-10-17T05:50:30;4.88;;;2.58;;
65706;SDS011;52423;43.512;5.220;2022-10-17T05:52:56;4.13;;;2.22;;
65706;SDS011;52423;43.512;5.220;2022-10-17T05:55:21;3.92;;;2.45;;
65706;SDS011;52423;43.512;5.220;2022-10-17T05:57:47;2.78;;;2.58;;
65706;SDS011;52423;43.512;5.220;2022-10-17T06:00:13;4.82;;;2.20;;
65706;SDS011;52423;43.512;5.220;2022-10-17T06:02:38;2.72;;;2.30;;
65706;SDS011;52423;43.512;5.220;2022-10-17T06:05:04;7.22;;;2.30;;
65706;SDS011;52423;43.512;5.220;2022-10-17T06:07:29;5.25;;;2.50;;
65706;SDS011;52423;43.512;5.220;2022-10-17T06:09:55;4.47;;;2.28;;
65706;SDS011;52423;43.512;5.220;2022-10-17T06:12:22;4.95;;;2.42;;
65706;SDS011;52423;43.512;5.220;2022-10-17T06:14:48;7.32;;;3.15;;
65706;SDS011;52423;43.512;5.220;2022-10-17T06:17:13;2.60;;;2.13;;
65706;SDS011;52423;43.512;5.220;2022-10-17T06:19:39;8.43;;;2.47;;
65706;SDS011;52423;43.512;5.220;2022-10-17T06:22:05;5.40;;;2.53;;
65706;SDS011;52423;43.512;5.220;2022-10-17T06:24:31;7.07;;;1.80;;
65706;SDS011;52423;43.512;5.220;2022-10-17T06:26:56;2.53;;;2.20;;
65706;SDS011;52423;43.512;5.220;2022-10-17T06:29:21;3.67;;;2.17;;
65706;SDS011;52423;43.512;5.220;2022-10-17T06:31:47;4.22;;;2.20;;
65706;SDS011;52423;43.512;5.220;2022-10-17T06:34:12;2.72;;;2.40;;
65706;SDS011;52423;43.512;5.220;2022-10-17T06:36:38;4.00;;;2.40;;
65706;SDS011;52423;43.512;5.220;2022-10-17T06:39:03;5.50;;;2.50;;
65706;SDS011;52423;43.512;5.220;2022-10-17T06:41:28;5.55;;;2.20;;
65706;SDS011;52423;43.512;5.220;2022-10-17T06:43:54;5.80;;;2.20;;
65706;SDS011;52423;43.512;5.220;2022-10-17T06:46:19;3.00;;;2.20;;
65706;SDS011;52423;43.512;5.220;2022-10-17T06:48:45;9.30;;;2.33;;
65706;SDS011;52423;43.512;5.220;2022-10-17T06:51:11;4.43;;;1.85;;
65706;SDS011;52423;43.512;5.220;2022-10-17T06:53:37;3.30;;;2.10;;
65706;SDS011;52423;43.512;5.220;2022-10-17T06:56:04;4.18;;;2.22;;
65706;SDS011;52423;43.512;5.220;2022-10-17T06:58:31;3.97;;;2.25;;
65706;SDS011;52423;43.512;5.220;2022-10-17T07:01:02;5.25;;;2.60;;
65706;SDS011;52423;43.512;5.220;2022-10-17T07:03:29;4.88;;;2.55;;
65706;SDS011;52423;43.512;5.220;2022-10-17T07:05:55;9.52;;;2.63;;
65706;SDS011;52423;43.512;5.220;2022-10-17T07:08:21;4.80;;;2.22;;
65706;SDS011;52423;43.512;5.220;2022-10-17T07:10:47;2.97;;;2.10;;
65706;SDS011;52423;43.512;5.220;2022-10-17T07:13:13;7.85;;;2.63;;
65706;SDS011;52423;43.512;5.220;2022-10-17T07:15:39;3.67;;;2.22;;
65706;SDS011;52423;43.512;5.220;2022-10-17T07:18:05;7.38;;;2.42;;
65706;SDS011;52423;43.512;5.220;2022-10-17T07:20:31;5.65;;;2.47;;
65706;SDS011;52423;43.512;5.220;2022-10-17T07:22:56;5.32;;;2.97;;
65706;SDS011;52423;43.512;5.220;2022-10-17T07:25:22;5.68;;;2.15;;
65706;SDS011;52423;43.512;5.220;2022-10-17T07:27:48;4.00;;;2.63;;
65706;SDS011;52423;43.512;5.220;2022-10-17T07:30:14;3.85;;;2.30;;
65706;SDS011;52423;43.512;5.220;2022-10-17T07:32:40;4.55;;;2.47;;
65706;SDS011;52423;43.512;5.220;2022-10-17T07:35:06;5.13;;;2.63;;
65706;SDS011;52423;43.512;5.220;2022-10-17T07:37:32;6.13;;;2.72;;
65706;SDS011;52423;43.512;5.220;2022-10-17T07:39:57;3.42;;;2.22;;
65706;SDS011;52423;43.512;5.220;2022-10-17T07:42:23;7.63;;;2.58;;
65706;SDS011;52423;43.512;5.220;2022-10-17T07:44:48;4.68;;;2.33;;
65706;SDS011;52423;43.512;5.220;2022-10-17T07:47:14;4.30;;;2.10;;
65706;SDS011;52423;43.512;5.220;2022-10-17T07:49:39;3.40;;;2.40;;
65706;SDS011;52423;43.512;5.220;2022-10-17T07:52:11;5.18;;;2.17;;
65706;SDS011;52423;43.512;5.220;2022-10-17T07:54:37;5.82;;;2.13;;
65706;SDS011;52423;43.512;5.220;2022-10-17T07:57:03;4.43;;;2.58;;
65706;SDS011;52423;43.512;5.220;2022-10-17T07:59:28;3.42;;;2.35;;
65706;SDS011;52423;43.512;5.220;2022-10-17T08:01:54;8.60;;;2.45;;
65706;SDS011;52423;43.512;5.220;2022-10-17T08:04:20;3.88;;;2.33;;
65706;SDS011;52423;43.512;5.220;2022-10-17T08:06:45;4.45;;;2.45;;
65706;SDS011;52423;43.512;5.220;2022-10-17T08:09:11;3.40;;;2.90;;
65706;SDS011;52423;43.512;5.220;2022-10-17T08:11:36;6.60;;;2.70;;
65706;SDS011;52423;43.512;5.220;2022-10-17T08:14:02;6.40;;;2.30;;
65706;SDS011;52423;43.512;5.220;2022-10-17T08:16:27;6.45;;;2.63;;
65706;SDS011;52423;43.512;5.220;2022-10-17T08:18:53;8.57;;;2.40;;
65706;SDS011;52423;43.512;5.220;2022-10-17T08:21:18;8.00;;;2.60;;
65706;SDS011;52423;43.512;5.220;2022-10-17T08:23:43;5.07;;;2.50;;
65706;SDS011;52423;43.512;5.220;2022-10-17T08:26:09;5.93;;;2.28;;
65706;SDS011;52423;43.512;5.220;2022-10-17T08:28:37;13.07;;;2.55;;
65706;SDS011;52423;43.512;5.220;2022-10-17T08:31:05;2.30;;;1.85;;
65706;SDS011;52423;43.512;5.220;2022-10-17T08:33:31;6.32;;;2.42;;
65706;SDS011;52423;43.512;5.220;2022-10-17T08:35:58;8.60;;;2.17;;
65706;SDS011;52423;43.512;5.220;2022-10-17T08:38:30;5.50;;;2.63;;
65706;SDS011;52423;43.512;5.220;2022-10-17T08:40:56;6.28;;;2.10;;
65706;SDS011;52423;43.512;5.220;2022-10-17T08:46:20;3.85;;;2.30;;
65706;SDS011;52423;43.512;5.220;2022-10-17T08:48:46;3.65;;;2.28;;
65706;SDS011;52423;43.512;5.220;2022-10-17T08:51:18;5.82;;;2.50;;
65706;SDS011;52423;43.512;5.220;2022-10-17T08:54:08;4.70;;;2.25;;
65706;SDS011;52423;43.512;5.220;2022-10-17T08:56:42;2.92;;;2.10;;
65706;SDS011;52423;43.512;5.220;2022-10-17T08:59:13;8.90;;;2.28;;
65706;SDS011;52423;43.512;5.220;2022-10-17T09:01:55;3.90;;;2.00;;
65706;SDS011;52423;43.512;5.220;2022-10-17T09:15:33;7.30;;;2.58;;
65706;SDS011;52423;43.512;5.220;2022-10-17T09:18:11;4.90;;;2.08;;
65706;SDS011;52423;43.512;5.220;2022-10-17T09:20:49;4.97;;;2.20;;
65706;SDS011;52423;43.512;5.220;2022-10-17T09:23:19;3.75;;;2.13;;
65706;SDS011;52423;43.512;5.220;2022-10-17T09:25:49;5.65;;;2.40;;
65706;SDS011;52423;43.512;5.220;2022-10-17T09:31:00;3.92;;;2.35;;
65706;SDS011;52423;43.512;5.220;2022-10-17T09:33:47;7.53;;;2.45;;
65706;SDS011;52423;43.512;5.220;2022-10-17T09:36:24;6.85;;;2.83;;
65706;SDS011;52423;43.512;5.220;2022-10-17T09:39:04;6.13;;;2.38;;
65706;SDS011;52423;43.512;5.220;2022-10-17T09:43:55;11.75;;;2.45;;
65706;SDS011;52423;43.512;5.220;2022-10-17T09:46:29;6.95;;;2.33;;
65706;SDS011;52423;43.512;5.220;2022-10-17T09:51:47;3.83;;;1.92;;
65706;SDS011;52423;43.512;5.220;2022-10-17T09:54:24;13.32;;;2.03;;
65706;SDS011;52423;43.512;5.220;2022-10-17T09:57:11;5.93;;;2.63;;
65706;SDS011;52423;43.512;5.220;2022-10-17T09:59:38;7.32;;;1.95;;
65706;SDS011;52423;43.512;5.220;2022-10-17T10:04:53;7.55;;;2.40;;
65706;SDS011;52423;43.512;5.220;2022-10-17T10:07:24;5.20;;;2.50;;
65706;SDS011;52423;43.512;5.220;2022-10-17T10:09:52;7.07;;;2.17;;
65706;SDS011;52423;43.512;5.220;2022-10-17T10:12:23;4.65;;;2.67;;
65706;SDS011;52423;43.512;5.220;2022-10-17T10:14:49;4.22;;;2.33;;
65706;SDS011;52423;43.512;5.220;2022-10-17T10:17:34;5.50;;;2.10;;
65706;SDS011;52423;43.512;5.220;2022-10-17T10:20:00;3.78;;;2.30;;
65706;SDS011;52423;43.512;5.220;2022-10-17T10:22:26;5.40;;;2.10;;
65706;SDS011;52423;43.512;5.220;2022-10-17T10:25:12;12.18;;;2.70;;
65706;SDS011;52423;43.512;5.220;2022-10-17T10:27:40;6.70;;;2.38;;
65706;SDS011;52423;43.512;5.220;2022-10-17T10:30:15;3.88;;;2.45;;
65706;SDS011;52423;43.512;5.220;2022-10-17T10:32:44;3.70;;;1.70;;
65706;SDS011;52423;43.512;5.220;2022-10-17T10:35:21;4.97;;;2.10;;
65706;SDS011;52423;43.512;5.220;2022-10-17T10:37:52;3.22;;;2.05;;
65706;SDS011;52423;43.512;5.220;2022-10-17T10:40:23;7.63;;;2.10;;
65706;SDS011;52423;43.512;5.220;2022-10-17T10:42:57;4.82;;;1.80;;
65706;SDS011;52423;43.512;5.220;2022-10-17T10:45:24;6.00;;;2.05;;
65706;SDS011;52423;43.512;5.220;2022-10-17T10:53:05;2.75;;;1.67;;
65706;SDS011;52423;43.512;5.220;2022-10-17T11:00:59;2.45;;;1.52;;
65706;SDS011;52423;43.512;5.220;2022-10-17T11:03:31;2.45;;;1.45;;
65706;SDS011;52423;43.512;5.220;2022-10-17T11:06:02;2.58;;;1.95;;
65706;SDS011;52423;43.512;5.220;2022-10-17T11:11:46;6.07;;;1.73;;
65706;SDS011;52423;43.512;5.220;2022-10-17T11:14:20;3.42;;;1.70;;
65706;SDS011;52423;43.512;5.220;2022-10-17T11:16:54;1.75;;;1.40;;
65706;SDS011;52423;43.512;5.220;2022-10-17T11:19:37;5.50;;;1.55;;
65706;SDS011;52423;43.512;5.220;2022-10-17T11:22:26;6.57;;;1.65;;
65706;SDS011;52423;43.512;5.220;2022-10-17T11:25:01;4.35;;;1.70;;
65706;SDS011;52423;43.512;5.220;2022-10-17T11:27:40;3.80;;;1.50;;
65706;SDS011;52423;43.512;5.220;2022-10-17T11:30:08;3.45;;;1.80;;
65706;SDS011;52423;43.512;5.220;2022-10-17T11:32:39;2.67;;;1.65;;
65706;SDS011;52423;43.512;5.220;2022-10-17T11:35:17;2.78;;;1.90;;
65706;SDS011;52423;43.512;5.220;2022-10-17T11:40:43;4.85;;;1.83;;
65706;SDS011;52423;43.512;5.220;2022-10-17T11:45:42;3.05;;;1.67;;
65706;SDS011;52423;43.512;5.220;2022-10-17T11:48:16;2.17;;;1.55;;
65706;SDS011;52423;43.512;5.220;2022-10-17T11:50:46;3.80;;;1.60;;
65706;SDS011;52423;43.512;5.220;2022-10-17T11:53:16;2.47;;;1.75;;
65706;SDS011;52423;43.512;5.220;2022-10-17T11:55:44;3.78;;;1.67;;
65706;SDS011;52423;43.512;5.220;2022-10-17T12:11:54;3.42;;;1.80;;
65706;SDS011;52423;43.512;5.220;2022-10-17T12:19:52;4.20;;;2.08;;
65706;SDS011;52423;43.512;5.220;2022-10-17T12:22:18;5.22;;;2.10;;
65706;SDS011;52423;43.512;5.220;2022-10-17T12:24:57;2.47;;;2.00;;
65706;SDS011;52423;43.512;5.220;2022-10-17T12:27:31;4.15;;;2.00;;
65706;SDS011;52423;43.512;5.220;2022-10-17T12:30:18;5.80;;;2.17;;
65706;SDS011;52423;43.512;5.220;2022-10-17T12:35:51;12.63;;;2.13;;
65706;SDS011;52423;43.512;5.220;2022-10-17T12:39:40;2.58;;;2.25;;
65706;SDS011;52423;43.512;5.220;2022-10-17T12:49:51;16.30;;;3.00;;
65706;SDS011;52423;43.512;5.220;2022-10-17T12:52:04;8.70;;;2.58;;
65706;SDS011;52423;43.512;5.220;2022-10-17T12:54:39;4.82;;;2.50;;
65706;SDS011;52423;43.512;5.220;2022-10-17T12:57:47;7.43;;;2.63;;
65706;SDS011;52423;43.512;5.220;2022-10-17T13:02:53;8.73;;;2.75;;
65706;SDS011;52423;43.512;5.220;2022-10-17T13:05:25;11.43;;;3.13;;
65706;SDS011;52423;43.512;5.220;2022-10-17T13:07:51;8.33;;;2.77;;
65706;SDS011;52423;43.512;5.220;2022-10-17T13:10:18;5.63;;;2.60;;
65706;SDS011;52423;43.512;5.220;2022-10-17T13:12:45;6.28;;;2.60;;
65706;SDS011;52423;43.512;5.220;2022-10-17T13:15:14;11.00;;;2.38;;
65706;SDS011;52423;43.512;5.220;2022-10-17T13:17:42;5.95;;;2.97;;
65706;SDS011;52423;43.512;5.220;2022-10-17T13:20:20;9.80;;;2.80;;
65706;SDS011;52423;43.512;5.220;2022-10-17T13:22:49;6.45;;;2.60;;
65706;SDS011;52423;43.512;5.220;2022-10-17T13:25:15;7.68;;;2.92;;
65706;SDS011;52423;43.512;5.220;2022-10-17T13:27:43;10.35;;;2.60;;
65706;SDS011;52423;43.512;5.220;2022-10-17T13:30:28;8.80;;;2.90;;
65706;SDS011;52423;43.512;5.220;2022-10-17T13:32:55;7.35;;;3.35;;
65706;SDS011;52423;43.512;5.220;2022-10-17T13:37:52;4.22;;;2.97;;
65706;SDS011;52423;43.512;5.220;2022-10-17T13:40:26;6.97;;;2.95;;
65706;SDS011;52423;43.512;5.220;2022-10-17T13:42:54;5.30;;;2.72;;
65706;SDS011;52423;43.512;5.220;2022-10-17T13:45:26;7.15;;;2.50;;
65706;SDS011;52423;43.512;5.220;2022-10-17T13:47:54;5.30;;;2.83;;
65706;SDS011;52423;43.512;5.220;2022-10-17T13:50:26;9.80;;;2.70;;
65706;SDS011;52423;43.512;5.220;2022-10-17T13:55:49;5.30;;;2.88;;
65706;SDS011;52423;43.512;5.220;2022-10-17T13:58:25;4.45;;;2.30;;
65706;SDS011;52423;43.512;5.220;2022-10-17T14:00:53;3.75;;;2.45;;
65706;SDS011;52423;43.512;5.220;2022-10-17T14:03:20;5.90;;;2.42;;
65706;SDS011;52423;43.512;5.220;2022-10-17T14:09:04;7.43;;;2.53;;
65706;SDS011;52423;43.512;5.220;2022-10-17T14:11:35;10.50;;;2.35;;
65706;SDS011;52423;43.512;5.220;2022-10-17T14:14:06;4.10;;;2.55;;
65706;SDS011;52423;43.512;5.220;2022-10-17T14:16:41;4.82;;;2.65;;
65706;SDS011;52423;43.512;5.220;2022-10-17T14:19:31;5.85;;;2.55;;
65706;SDS011;52423;43.512;5.220;2022-10-17T14:21:55;2.70;;;2.17;;
65706;SDS011;52423;43.512;5.220;2022-10-17T14:24:38;3.80;;;2.67;;
65706;SDS011;52423;43.512;5.220;2022-10-17T14:29:55;5.75;;;2.40;;
65706;SDS011;52423;43.512;5.220;2022-10-17T14:32:25;4.53;;;2.60;;
65706;SDS011;52423;43.512;5.220;2022-10-17T14:34:53;8.38;;;2.45;;
65706;SDS011;52423;43.512;5.220;2022-10-17T14:39:48;8.13;;;3.00;;
65706;SDS011;52423;43.512;5.220;2022-10-17T14:42:18;6.80;;;2.63;;
65706;SDS011;52423;43.512;5.220;2022-10-17T14:44:46;11.82;;;2.60;;
65706;SDS011;52423;43.512;5.220;2022-10-17T14:49:47;4.97;;;2.78;;
65706;SDS011;52423;43.512;5.220;2022-10-17T14:54:39;10.10;;;2.47;;
65706;SDS011;52423;43.512;5.220;2022-10-17T14:57:13;10.25;;;3.00;;
65706;SDS011;52423;43.512;5.220;2022-10-17T14:59:39;9.45;;;2.70;;
65706;SDS011;52423;43.512;5.220;2022-10-17T15:02:04;9.93;;;2.63;;
65706;SDS011;52423;43.512;5.220;2022-10-17T15:04:30;9.55;;;2.97;;
65706;SDS011;52423;43.512;5.220;2022-10-17T15:06:55;11.25;;;3.05;;
65706;SDS011;52423;43.512;5.220;2022-10-17T15:09:20;8.57;;;2.53;;
65706;SDS011;52423;43.512;5.220;2022-10-17T15:11:47;5.82;;;2.88;;
65706;SDS011;52423;43.512;5.220;2022-10-17T15:14:13;5.63;;;2.88;;
65706;SDS011;52423;43.512;5.220;2022-10-17T15:16:38;8.20;;;2.88;;
65706;SDS011;52423;43.512;5.220;2022-10-17T15:19:03;9.52;;;3.20;;
65706;SDS011;52423;43.512;5.220;2022-10-17T15:21:29;6.32;;;2.70;;
65706;SDS011;52423;43.512;5.220;2022-10-17T15:23:54;6.30;;;2.88;;
65706;SDS011;52423;43.512;5.220;2022-10-17T15:26:21;7.55;;;2.97;;
65706;SDS011;52423;43.512;5.220;2022-10-17T15:28:48;6.65;;;3.00;;
65706;SDS011;52423;43.512;5.220;2022-10-17T15:31:16;6.75;;;2.70;;
65706;SDS011;52423;43.512;5.220;2022-10-17T15:33:42;17.48;;;3.25;;
65706;SDS011;52423;43.512;5.220;2022-10-17T15:36:22;13.00;;;3.47;;
65706;SDS011;52423;43.512;5.220;2022-10-17T15:38:53;7.10;;;3.10;;
65706;SDS011;52423;43.512;5.220;2022-10-17T15:41:24;7.55;;;3.10;;
65706;SDS011;52423;43.512;5.220;2022-10-17T15:43:54;8.07;;;3.05;;
65706;SDS011;52423;43.512;5.220;2022-10-17T15:46:21;10.38;;;3.28;;
65706;SDS011;52423;43.512;5.220;2022-10-17T15:48:49;6.68;;;2.80;;
65706;SDS011;52423;43.512;5.220;2022-10-17T15:51:15;4.25;;;3.22;;
65706;SDS011;52423;43.512;5.220;2022-10-17T15:53:41;4.70;;;2.83;;
65706;SDS011;52423;43.512;5.220;2022-10-17T15:56:06;4.43;;;2.65;;
65706;SDS011;52423;43.512;5.220;2022-10-17T15:58:38;5.97;;;2.95;;
65706;SDS011;52423;43.512;5.220;2022-10-17T16:01:05;7.88;;;3.22;;
65706;SDS011;52423;43.512;5.220;2022-10-17T16:03:31;7.32;;;2.78;;
65706;SDS011;52423;43.512;5.220;2022-10-17T16:05:57;11.70;;;2.83;;
65706;SDS011;52423;43.512;5.220;2022-10-17T16:08:22;5.78;;;2.95;;
65706;SDS011;52423;43.512;5.220;2022-10-17T16:10:48;5.78;;;3.08;;
65706;SDS011;52423;43.512;5.220;2022-10-17T16:13:18;8.48;;;3.92;;
65706;SDS011;52423;43.512;5.220;2022-10-17T16:15:46;6.05;;;2.95;;
65706;SDS011;52423;43.512;5.220;2022-10-17T16:18:11;8.18;;;3.42;;
65706;SDS011;52423;43.512;5.220;2022-10-17T16:20:37;8.65;;;3.35;;
65706;SDS011;52423;43.512;5.220;2022-10-17T16:23:03;12.52;;;3.10;;
65706;SDS011;52423;43.512;5.220;2022-10-17T16:25:29;8.18;;;3.00;;
65706;SDS011;52423;43.512;5.220;2022-10-17T16:27:56;9.95;;;3.55;;
65706;SDS011;52423;43.512;5.220;2022-10-17T16:30:24;8.48;;;3.50;;
65706;SDS011;52423;43.512;5.220;2022-10-17T16:32:50;8.10;;;3.80;;
65706;SDS011;52423;43.512;5.220;2022-10-17T16:35:17;10.00;;;3.83;;
65706;SDS011;52423;43.512;5.220;2022-10-17T16:37:44;8.25;;;3.30;;
65706;SDS011;52423;43.512;5.220;2022-10-17T16:40:10;19.45;;;4.00;;
65706;SDS011;52423;43.512;5.220;2022-10-17T16:42:36;5.18;;;3.38;;
65706;SDS011;52423;43.512;5.220;2022-10-17T16:45:01;10.77;;;3.80;;
65706;SDS011;52423;43.512;5.220;2022-10-17T16:47:26;6.93;;;3.95;;
65706;SDS011;52423;43.512;5.220;2022-10-17T16:49:52;9.13;;;4.40;;
65706;SDS011;52423;43.512;5.220;2022-10-17T16:52:17;12.50;;;4.40;;
65706;SDS011;52423;43.512;5.220;2022-10-17T16:54:42;7.45;;;3.70;;
65706;SDS011;52423;43.512;5.220;2022-10-17T16:57:08;8.45;;;4.30;;
65706;SDS011;52423;43.512;5.220;2022-10-17T16:59:33;9.43;;;3.83;;
65706;SDS011;52423;43.512;5.220;2022-10-17T17:01:59;7.80;;;3.83;;
65706;SDS011;52423;43.512;5.220;2022-10-17T17:04:24;5.55;;;3.88;;
65706;SDS011;52423;43.512;5.220;2022-10-17T17:06:49;16.70;;;4.40;;